sensor_id;sensor_type;location;lat;lon;timestamp;temperature;humidity
78463;SHT31;67756;51.982;5.648;2023-02-26T00:01:59;6.1;54.5
78463;SHT31;67756;51.982;5.648;2023-02-26T00:04:30;6.1;54.2
78463;SHT31;67756;51.982;5.648;2023-02-26T00:06:59;6.1;54.3
78463;SHT31;67756;51.982;5.648;2023-02-26T00:09:31;6.1;54.2
78463;SHT31;67756;51.982;5.648;2023-02-26T00:12:01;6.1;53.7
78463;SHT31;67756;51.982;5.648;2023-02-26T00:14:33;6.1;53.8
78463;SHT31;67756;51.982;5.648;2023-02-26T00:17:28;6.0;53.7
78463;SHT31;67756;51.982;5.648;2023-02-26T00:20:07;6.0;53.8
78463;SHT31;67756;51.982;5.648;2023-02-26T00:22:39;6.0;53.9
78463;SHT31;67756;51.982;5.648;2023-02-26T00:25:10;5.9;53.6
78463;SHT31;67756;51.982;5.648;2023-02-26T00:27:41;5.9;53.9
78463;SHT31;67756;51.982;5.648;2023-02-26T00:30:12;5.8;53.9
78463;SHT31;67756;51.982;5.648;2023-02-26T00:32:42;5.8;54.2
78463;SHT31;67756;51.982;5.648;2023-02-26T00:35:14;5.7;54.4
78463;SHT31;67756;51.982;5.648;2023-02-26T00:37:59;5.6;53.9
78463;SHT31;67756;51.982;5.648;2023-02-26T00:40:34;5.6;54.0
78463;SHT31;67756;51.982;5.648;2023-02-26T00:43:07;5.6;54.5
78463;SHT31;67756;51.982;5.648;2023-02-26T00:45:41;5.5;53.9
78463;SHT31;67756;51.982;5.648;2023-02-26T00:48:39;5.5;54.2
78463;SHT31;67756;51.982;5.648;2023-02-26T00:51:20;5.5;54.2
78463;SHT31;67756;51.982;5.648;2023-02-26T00:54:01;5.5;53.7
78463;SHT31;67756;51.982;5.648;2023-02-26T00:56:33;5.5;53.3
78463;SHT31;67756;51.982;5.648;2023-02-26T00:59:04;5.4;53.5
78463;SHT31;67756;51.982;5.648;2023-02-26T01:01:33;5.4;53.3
78463;SHT31;67756;51.982;5.648;2023-02-26T01:04:03;5.4;53.0
78463;SHT31;67756;51.982;5.648;2023-02-26T01:06:34;5.4;53.9
78463;SHT31;67756;51.982;5.648;2023-02-26T01:09:16;5.3;53.4
78463;SHT31;67756;51.982;5.648;2023-02-26T01:11:48;5.3;53.9
78463;SHT31;67756;51.982;5.648;2023-02-26T01:14:19;5.2;53.6
78463;SHT31;67756;51.982;5.648;2023-02-26T01:16:54;5.2;53.6
78463;SHT31;67756;51.982;5.648;2023-02-26T01:19:32;5.1;53.3
78463;SHT31;67756;51.982;5.648;2023-02-26T01:22:08;5.1;53.7
78463;SHT31;67756;51.982;5.648;2023-02-26T01:24:39;5.0;54.0
78463;SHT31;67756;51.982;5.648;2023-02-26T01:27:09;5.0;54.0
78463;SHT31;67756;51.982;5.648;2023-02-26T01:29:41;5.0;54.2
78463;SHT31;67756;51.982;5.648;2023-02-26T01:32:16;4.9;53.8
78463;SHT31;67756;51.982;5.648;2023-02-26T01:34:53;4.9;53.6
78463;SHT31;67756;51.982;5.648;2023-02-26T01:37:43;4.9;54.4
78463;SHT31;67756;51.982;5.648;2023-02-26T01:40:33;4.9;54.0
78463;SHT31;67756;51.982;5.648;2023-02-26T01:43:08;4.9;54.0
78463;SHT31;67756;51.982;5.648;2023-02-26T01:45:53;4.9;53.7
78463;SHT31;67756;51.982;5.648;2023-02-26T01:48:33;4.8;53.7
78463;SHT31;67756;51.982;5.648;2023-02-26T01:51:04;4.8;53.5
78463;SHT31;67756;51.982;5.648;2023-02-26T01:53:34;4.8;54.0
78463;SHT31;67756;51.982;5.648;2023-02-26T01:56:11;4.7;53.9
78463;SHT31;67756;51.982;5.648;2023-02-26T01:58:43;4.7;53.6
78463;SHT31;67756;51.982;5.648;2023-02-26T02:01:15;4.7;54.2
78463;SHT31;67756;51.982;5.648;2023-02-26T02:03:45;4.6;54.1
78463;SHT31;67756;51.982;5.648;2023-02-26T02:06:20;4.6;53.9
78463;SHT31;67756;51.982;5.648;2023-02-26T02:08:50;4.6;54.1
78463;SHT31;67756;51.982;5.648;2023-02-26T02:11:21;4.5;54.3
78463;SHT31;67756;51.982;5.648;2023-02-26T02:14:03;4.5;54.2
78463;SHT31;67756;51.982;5.648;2023-02-26T02:16:52;4.5;54.6
78463;SHT31;67756;51.982;5.648;2023-02-26T02:19:42;4.5;54.2
78463;SHT31;67756;51.982;5.648;2023-02-26T02:22:49;4.5;53.5
78463;SHT31;67756;51.982;5.648;2023-02-26T02:29:49;4.5;54.3
78463;SHT31;67756;51.982;5.648;2023-02-26T02:32:28;4.5;53.4
78463;SHT31;67756;51.982;5.648;2023-02-26T02:35:05;4.4;53.9
78463;SHT31;67756;51.982;5.648;2023-02-26T02:37:40;4.4;54.0
78463;SHT31;67756;51.982;5.648;2023-02-26T02:40:17;4.4;53.3
78463;SHT31;67756;51.982;5.648;2023-02-26T02:42:53;4.4;53.7
78463;SHT31;67756;51.982;5.648;2023-02-26T02:45:30;4.3;53.9
78463;SHT31;67756;51.982;5.648;2023-02-26T02:48:04;4.3;53.6
78463;SHT31;67756;51.982;5.648;2023-02-26T02:50:38;4.3;53.9
78463;SHT31;67756;51.982;5.648;2023-02-26T02:53:15;4.3;53.5
78463;SHT31;67756;51.982;5.648;2023-02-26T02:55:51;4.3;53.7
78463;SHT31;67756;51.982;5.648;2023-02-26T02:58:27;4.3;53.6
78463;SHT31;67756;51.982;5.648;2023-02-26T03:01:03;4.3;53.4
78463;SHT31;67756;51.982;5.648;2023-02-26T03:03:44;4.3;52.9
78463;SHT31;67756;51.982;5.648;2023-02-26T03:06:15;4.2;52.9
78463;SHT31;67756;51.982;5.648;2023-02-26T03:08:47;4.2;52.6
78463;SHT31;67756;51.982;5.648;2023-02-26T03:11:18;4.2;52.1
78463;SHT31;67756;51.982;5.648;2023-02-26T03:13:51;4.2;52.6
78463;SHT31;67756;51.982;5.648;2023-02-26T03:16:30;4.2;53.2
78463;SHT31;67756;51.982;5.648;2023-02-26T03:19:09;4.1;52.9
78463;SHT31;67756;51.982;5.648;2023-02-26T03:21:48;4.1;52.3
78463;SHT31;67756;51.982;5.648;2023-02-26T03:24:27;4.1;52.2
78463;SHT31;67756;51.982;5.648;2023-02-26T03:27:04;4.0;51.8
78463;SHT31;67756;51.982;5.648;2023-02-26T03:29:46;4.0;51.6
78463;SHT31;67756;51.982;5.648;2023-02-26T03:32:26;4.0;52.2
78463;SHT31;67756;51.982;5.648;2023-02-26T03:35:02;4.0;53.0
78463;SHT31;67756;51.982;5.648;2023-02-26T03:37:36;3.9;52.2
78463;SHT31;67756;51.982;5.648;2023-02-26T03:40:12;3.9;52.8
78463;SHT31;67756;51.982;5.648;2023-02-26T03:42:48;3.9;52.5
78463;SHT31;67756;51.982;5.648;2023-02-26T03:45:24;3.9;52.6
78463;SHT31;67756;51.982;5.648;2023-02-26T03:47:58;3.9;53.2
78463;SHT31;67756;51.982;5.648;2023-02-26T03:50:33;3.8;53.0
78463;SHT31;67756;51.982;5.648;2023-02-26T03:53:08;3.8;52.3
78463;SHT31;67756;51.982;5.648;2023-02-26T03:55:43;3.8;52.0
78463;SHT31;67756;51.982;5.648;2023-02-26T03:58:14;3.8;52.3
78463;SHT31;67756;51.982;5.648;2023-02-26T04:00:49;3.8;52.7
78463;SHT31;67756;51.982;5.648;2023-02-26T04:03:27;3.8;52.7
78463;SHT31;67756;51.982;5.648;2023-02-26T04:05:58;3.8;52.0
78463;SHT31;67756;51.982;5.648;2023-02-26T04:08:29;3.8;52.1
78463;SHT31;67756;51.982;5.648;2023-02-26T04:11:05;3.7;52.9
78463;SHT31;67756;51.982;5.648;2023-02-26T04:13:35;3.7;52.9
78463;SHT31;67756;51.982;5.648;2023-02-26T04:16:05;3.7;52.4
78463;SHT31;67756;51.982;5.648;2023-02-26T04:18:34;3.7;52.2
78463;SHT31;67756;51.982;5.648;2023-02-26T04:21:05;3.7;52.0
78463;SHT31;67756;51.982;5.648;2023-02-26T04:23:34;3.7;51.8
78463;SHT31;67756;51.982;5.648;2023-02-26T04:26:04;3.7;51.3
78463;SHT31;67756;51.982;5.648;2023-02-26T04:28:34;3.7;52.0
78463;SHT31;67756;51.982;5.648;2023-02-26T04:31:05;3.7;51.8
78463;SHT31;67756;51.982;5.648;2023-02-26T04:33:36;3.6;51.3
78463;SHT31;67756;51.982;5.648;2023-02-26T04:36:06;3.6;51.7
78463;SHT31;67756;51.982;5.648;2023-02-26T04:38:36;3.6;51.6
78463;SHT31;67756;51.982;5.648;2023-02-26T04:41:06;3.6;51.5
78463;SHT31;67756;51.982;5.648;2023-02-26T04:43:36;3.5;51.8
78463;SHT31;67756;51.982;5.648;2023-02-26T04:46:06;3.5;52.5
78463;SHT31;67756;51.982;5.648;2023-02-26T04:48:36;3.5;51.1
78463;SHT31;67756;51.982;5.648;2023-02-26T04:51:08;3.5;51.6
78463;SHT31;67756;51.982;5.648;2023-02-26T04:53:38;3.5;51.6
78463;SHT31;67756;51.982;5.648;2023-02-26T04:56:08;3.5;51.7
78463;SHT31;67756;51.982;5.648;2023-02-26T04:58:37;3.5;51.6
78463;SHT31;67756;51.982;5.648;2023-02-26T05:01:07;3.5;51.2
78463;SHT31;67756;51.982;5.648;2023-02-26T05:03:37;3.5;51.7
78463;SHT31;67756;51.982;5.648;2023-02-26T05:06:07;3.5;51.7
78463;SHT31;67756;51.982;5.648;2023-02-26T05:08:37;3.5;51.9
78463;SHT31;67756;51.982;5.648;2023-02-26T05:11:09;3.4;51.6
78463;SHT31;67756;51.982;5.648;2023-02-26T05:13:39;3.4;51.4
78463;SHT31;67756;51.982;5.648;2023-02-26T05:16:10;3.4;51.9
78463;SHT31;67756;51.982;5.648;2023-02-26T05:18:39;3.3;51.5
78463;SHT31;67756;51.982;5.648;2023-02-26T05:21:09;3.3;51.2
78463;SHT31;67756;51.982;5.648;2023-02-26T05:23:39;3.3;51.6
78463;SHT31;67756;51.982;5.648;2023-02-26T05:26:08;3.3;52.0
78463;SHT31;67756;51.982;5.648;2023-02-26T05:28:38;3.2;51.4
78463;SHT31;67756;51.982;5.648;2023-02-26T05:31:08;3.2;51.8
78463;SHT31;67756;51.982;5.648;2023-02-26T05:33:38;3.2;52.1
78463;SHT31;67756;51.982;5.648;2023-02-26T05:36:08;3.2;51.2
78463;SHT31;67756;51.982;5.648;2023-02-26T05:38:40;3.2;51.9
78463;SHT31;67756;51.982;5.648;2023-02-26T05:41:09;3.2;51.7
78463;SHT31;67756;51.982;5.648;2023-02-26T05:43:41;3.2;51.0
78463;SHT31;67756;51.982;5.648;2023-02-26T05:46:10;3.1;51.7
78463;SHT31;67756;51.982;5.648;2023-02-26T05:48:40;3.1;51.8
78463;SHT31;67756;51.982;5.648;2023-02-26T05:51:09;3.1;50.6
78463;SHT31;67756;51.982;5.648;2023-02-26T05:53:39;3.1;51.2
78463;SHT31;67756;51.982;5.648;2023-02-26T05:56:11;3.0;51.3
78463;SHT31;67756;51.982;5.648;2023-02-26T05:58:42;3.0;51.6
78463;SHT31;67756;51.982;5.648;2023-02-26T06:01:12;3.0;52.2
78463;SHT31;67756;51.982;5.648;2023-02-26T06:03:41;3.0;51.5
78463;SHT31;67756;51.982;5.648;2023-02-26T06:06:13;2.9;51.6
78463;SHT31;67756;51.982;5.648;2023-02-26T06:08:44;2.9;51.6
78463;SHT31;67756;51.982;5.648;2023-02-26T06:11:14;2.9;51.5
78463;SHT31;67756;51.982;5.648;2023-02-26T06:13:43;2.9;51.2
78463;SHT31;67756;51.982;5.648;2023-02-26T06:16:13;2.9;51.3
78463;SHT31;67756;51.982;5.648;2023-02-26T06:18:43;2.9;51.1
78463;SHT31;67756;51.982;5.648;2023-02-26T06:21:13;2.9;50.6
78463;SHT31;67756;51.982;5.648;2023-02-26T06:23:43;2.9;50.9
78463;SHT31;67756;51.982;5.648;2023-02-26T06:26:13;2.9;51.3
78463;SHT31;67756;51.982;5.648;2023-02-26T06:28:42;2.9;51.5
78463;SHT31;67756;51.982;5.648;2023-02-26T06:31:12;2.8;52.3
78463;SHT31;67756;51.982;5.648;2023-02-26T06:33:41;2.8;51.7
78463;SHT31;67756;51.982;5.648;2023-02-26T06:36:13;2.8;51.3
78463;SHT31;67756;51.982;5.648;2023-02-26T06:38:44;2.8;51.5
78463;SHT31;67756;51.982;5.648;2023-02-26T06:41:13;2.8;52.0
78463;SHT31;67756;51.982;5.648;2023-02-26T06:43:43;2.8;51.7
78463;SHT31;67756;51.982;5.648;2023-02-26T06:46:15;2.8;51.6
78463;SHT31;67756;51.982;5.648;2023-02-26T06:48:44;2.8;52.1
78463;SHT31;67756;51.982;5.648;2023-02-26T06:51:14;2.8;52.0
78463;SHT31;67756;51.982;5.648;2023-02-26T06:53:43;2.8;52.7
78463;SHT31;67756;51.982;5.648;2023-02-26T06:56:13;2.8;52.1
78463;SHT31;67756;51.982;5.648;2023-02-26T06:58:43;2.8;52.1
78463;SHT31;67756;51.982;5.648;2023-02-26T07:01:12;2.8;51.8
78463;SHT31;67756;51.982;5.648;2023-02-26T07:03:42;2.8;52.1
78463;SHT31;67756;51.982;5.648;2023-02-26T07:06:12;2.8;52.4
78463;SHT31;67756;51.982;5.648;2023-02-26T07:08:42;2.8;51.6
78463;SHT31;67756;51.982;5.648;2023-02-26T07:11:12;2.8;52.0
78463;SHT31;67756;51.982;5.648;2023-02-26T07:13:43;2.8;51.7
78463;SHT31;67756;51.982;5.648;2023-02-26T07:16:13;2.8;52.3
78463;SHT31;67756;51.982;5.648;2023-02-26T07:18:42;2.8;51.8
78463;SHT31;67756;51.982;5.648;2023-02-26T07:21:14;2.8;52.2
78463;SHT31;67756;51.982;5.648;2023-02-26T07:23:43;2.8;52.2
78463;SHT31;67756;51.982;5.648;2023-02-26T07:26:13;2.8;52.8
78463;SHT31;67756;51.982;5.648;2023-02-26T07:28:43;2.9;52.6
78463;SHT31;67756;51.982;5.648;2023-02-26T07:31:13;2.9;53.5
78463;SHT31;67756;51.982;5.648;2023-02-26T07:33:43;2.9;53.9
78463;SHT31;67756;51.982;5.648;2023-02-26T07:36:13;2.9;53.6
78463;SHT31;67756;51.982;5.648;2023-02-26T07:38:42;2.9;53.2
78463;SHT31;67756;51.982;5.648;2023-02-26T07:41:12;3.0;53.8
78463;SHT31;67756;51.982;5.648;2023-02-26T07:43:41;3.0;53.8
78463;SHT31;67756;51.982;5.648;2023-02-26T07:46:11;3.0;54.0
78463;SHT31;67756;51.982;5.648;2023-02-26T07:48:41;3.1;53.9
78463;SHT31;67756;51.982;5.648;2023-02-26T07:51:11;3.1;54.8
78463;SHT31;67756;51.982;5.648;2023-02-26T07:53:42;3.1;54.0
78463;SHT31;67756;51.982;5.648;2023-02-26T07:56:11;3.2;54.5
78463;SHT31;67756;51.982;5.648;2023-02-26T07:58:41;3.2;54.6
78463;SHT31;67756;51.982;5.648;2023-02-26T08:01:11;3.3;54.0
78463;SHT31;67756;51.982;5.648;2023-02-26T08:03:40;3.4;54.4
78463;SHT31;67756;51.982;5.648;2023-02-26T08:06:10;3.5;53.6
78463;SHT31;67756;51.982;5.648;2023-02-26T08:08:41;3.6;53.7
78463;SHT31;67756;51.982;5.648;2023-02-26T08:11:10;3.7;53.1
78463;SHT31;67756;51.982;5.648;2023-02-26T08:13:40;3.8;52.4
78463;SHT31;67756;51.982;5.648;2023-02-26T08:16:11;3.8;53.0
78463;SHT31;67756;51.982;5.648;2023-02-26T08:18:41;3.9;52.1
78463;SHT31;67756;51.982;5.648;2023-02-26T08:21:11;3.9;52.4
78463;SHT31;67756;51.982;5.648;2023-02-26T08:23:40;4.0;51.4
78463;SHT31;67756;51.982;5.648;2023-02-26T08:26:11;4.0;51.3
78463;SHT31;67756;51.982;5.648;2023-02-26T08:28:41;4.1;52.0
78463;SHT31;67756;51.982;5.648;2023-02-26T08:31:12;4.1;51.0
78463;SHT31;67756;51.982;5.648;2023-02-26T08:33:42;4.1;51.5
78463;SHT31;67756;51.982;5.648;2023-02-26T08:36:12;4.1;51.5
78463;SHT31;67756;51.982;5.648;2023-02-26T08:38:42;4.2;51.8
78463;SHT31;67756;51.982;5.648;2023-02-26T08:41:11;4.2;51.5
78463;SHT31;67756;51.982;5.648;2023-02-26T08:43:43;4.2;52.0
78463;SHT31;67756;51.982;5.648;2023-02-26T08:46:12;4.3;52.2
78463;SHT31;67756;51.982;5.648;2023-02-26T08:48:42;4.4;52.2
78463;SHT31;67756;51.982;5.648;2023-02-26T08:51:11;4.4;52.2
78463;SHT31;67756;51.982;5.648;2023-02-26T08:53:41;4.5;51.8
78463;SHT31;67756;51.982;5.648;2023-02-26T08:56:13;4.5;51.0
78463;SHT31;67756;51.982;5.648;2023-02-26T08:58:43;4.6;52.7
78463;SHT31;67756;51.982;5.648;2023-02-26T09:01:15;4.6;51.3
78463;SHT31;67756;51.982;5.648;2023-02-26T09:03:45;4.7;52.6
78463;SHT31;67756;51.982;5.648;2023-02-26T09:06:14;4.7;51.1
78463;SHT31;67756;51.982;5.648;2023-02-26T09:08:44;4.8;50.1
78463;SHT31;67756;51.982;5.648;2023-02-26T09:11:15;4.9;48.5
78463;SHT31;67756;51.982;5.648;2023-02-26T09:13:45;4.9;48.5
78463;SHT31;67756;51.982;5.648;2023-02-26T09:16:15;5.0;47.9
78463;SHT31;67756;51.982;5.648;2023-02-26T09:18:44;5.1;47.3
78463;SHT31;67756;51.982;5.648;2023-02-26T09:21:14;5.1;47.8
78463;SHT31;67756;51.982;5.648;2023-02-26T09:23:44;5.2;48.5
78463;SHT31;67756;51.982;5.648;2023-02-26T09:26:13;5.3;46.4
78463;SHT31;67756;51.982;5.648;2023-02-26T09:28:43;5.3;46.6
78463;SHT31;67756;51.982;5.648;2023-02-26T09:31:14;5.4;47.2
78463;SHT31;67756;51.982;5.648;2023-02-26T09:33:44;5.5;46.2
78463;SHT31;67756;51.982;5.648;2023-02-26T09:36:14;5.6;45.4
78463;SHT31;67756;51.982;5.648;2023-02-26T09:38:44;5.6;44.2
78463;SHT31;67756;51.982;5.648;2023-02-26T09:41:20;5.7;43.5
78463;SHT31;67756;51.982;5.648;2023-02-26T09:44:13;5.8;44.2
78463;SHT31;67756;51.982;5.648;2023-02-26T09:46:54;5.8;43.3
78463;SHT31;67756;51.982;5.648;2023-02-26T09:49:33;5.9;43.3
78463;SHT31;67756;51.982;5.648;2023-02-26T09:52:15;5.9;42.0
78463;SHT31;67756;51.982;5.648;2023-02-26T09:54:51;6.0;42.8
78463;SHT31;67756;51.982;5.648;2023-02-26T09:57:30;6.0;41.7
78463;SHT31;67756;51.982;5.648;2023-02-26T10:00:00;6.1;42.0
78463;SHT31;67756;51.982;5.648;2023-02-26T10:02:38;6.1;42.2
78463;SHT31;67756;51.982;5.648;2023-02-26T10:05:20;6.2;42.8
78463;SHT31;67756;51.982;5.648;2023-02-26T10:07:57;6.3;41.7
78463;SHT31;67756;51.982;5.648;2023-02-26T10:10:36;6.3;41.5
78463;SHT31;67756;51.982;5.648;2023-02-26T10:13:18;6.4;41.4
78463;SHT31;67756;51.982;5.648;2023-02-26T10:15:52;6.5;42.2
78463;SHT31;67756;51.982;5.648;2023-02-26T10:18:31;6.6;42.0
78463;SHT31;67756;51.982;5.648;2023-02-26T10:21:07;6.8;41.7
78463;SHT31;67756;51.982;5.648;2023-02-26T10:23:41;7.1;39.9
78463;SHT31;67756;51.982;5.648;2023-02-26T10:26:19;7.2;40.4
78463;SHT31;67756;51.982;5.648;2023-02-26T10:28:57;7.4;40.0
78463;SHT31;67756;51.982;5.648;2023-02-26T10:31:33;7.6;39.2
78463;SHT31;67756;51.982;5.648;2023-02-26T10:34:20;7.8;39.1
78463;SHT31;67756;51.982;5.648;2023-02-26T10:36:59;7.9;39.0
78463;SHT31;67756;51.982;5.648;2023-02-26T10:39:37;8.1;37.0
78463;SHT31;67756;51.982;5.648;2023-02-26T10:42:12;8.2;38.8
78463;SHT31;67756;51.982;5.648;2023-02-26T10:44:56;8.3;37.9
78463;SHT31;67756;51.982;5.648;2023-02-26T10:47:39;8.4;37.9
78463;SHT31;67756;51.982;5.648;2023-02-26T10:50:14;8.5;37.1
78463;SHT31;67756;51.982;5.648;2023-02-26T10:52:46;8.5;37.6
78463;SHT31;67756;51.982;5.648;2023-02-26T10:55:58;8.5;37.7
78463;SHT31;67756;51.982;5.648;2023-02-26T10:58:30;8.6;36.6
78463;SHT31;67756;51.982;5.648;2023-02-26T11:01:01;8.6;36.9
78463;SHT31;67756;51.982;5.648;2023-02-26T11:03:35;8.6;36.8
78463;SHT31;67756;51.982;5.648;2023-02-26T11:06:06;8.5;36.7
78463;SHT31;67756;51.982;5.648;2023-02-26T11:08:41;8.4;36.3
78463;SHT31;67756;51.982;5.648;2023-02-26T11:11:39;8.3;36.9
78463;SHT31;67756;51.982;5.648;2023-02-26T11:14:11;8.2;37.3
78463;SHT31;67756;51.982;5.648;2023-02-26T11:16:47;8.2;38.1
78463;SHT31;67756;51.982;5.648;2023-02-26T11:19:24;8.2;37.0
78463;SHT31;67756;51.982;5.648;2023-02-26T11:21:56;8.1;37.7
78463;SHT31;67756;51.982;5.648;2023-02-26T11:24:32;8.2;37.1
78463;SHT31;67756;51.982;5.648;2023-02-26T11:27:06;8.3;36.9
78463;SHT31;67756;51.982;5.648;2023-02-26T11:29:41;8.4;38.4
78463;SHT31;67756;51.982;5.648;2023-02-26T11:32:16;8.6;37.2
78463;SHT31;67756;51.982;5.648;2023-02-26T11:34:50;8.9;36.5
78463;SHT31;67756;51.982;5.648;2023-02-26T11:37:22;9.1;37.2
78463;SHT31;67756;51.982;5.648;2023-02-26T11:39:56;9.5;35.7
78463;SHT31;67756;51.982;5.648;2023-02-26T11:42:27;9.9;35.5
78463;SHT31;67756;51.982;5.648;2023-02-26T11:44:57;10.4;34.4
78463;SHT31;67756;51.982;5.648;2023-02-26T11:47:30;10.8;34.1
78463;SHT31;67756;51.982;5.648;2023-02-26T11:50:08;11.3;32.8
78463;SHT31;67756;51.982;5.648;2023-02-26T11:52:43;11.7;32.0
78463;SHT31;67756;51.982;5.648;2023-02-26T11:55:21;12.1;32.3
78463;SHT31;67756;51.982;5.648;2023-02-26T11:57:55;12.5;31.0
78463;SHT31;67756;51.982;5.648;2023-02-26T12:00:35;12.7;29.9
78463;SHT31;67756;51.982;5.648;2023-02-26T12:03:06;12.8;30.4
78463;SHT31;67756;51.982;5.648;2023-02-26T12:05:39;13.0;30.3
78463;SHT31;67756;51.982;5.648;2023-02-26T12:08:22;13.1;31.0
78463;SHT31;67756;51.982;5.648;2023-02-26T12:11:06;13.2;30.2
78463;SHT31;67756;51.982;5.648;2023-02-26T12:13:51;13.2;30.4
78463;SHT31;67756;51.982;5.648;2023-02-26T12:16:28;13.3;30.7
78463;SHT31;67756;51.982;5.648;2023-02-26T12:19:05;13.3;31.0
78463;SHT31;67756;51.982;5.648;2023-02-26T12:21:58;13.4;30.5
78463;SHT31;67756;51.982;5.648;2023-02-26T12:25:26;13.6;30.6
78463;SHT31;67756;51.982;5.648;2023-02-26T12:33:04;14.4;27.8
78463;SHT31;67756;51.982;5.648;2023-02-26T12:35:46;14.9;26.9
78463;SHT31;67756;51.982;5.648;2023-02-26T12:38:27;15.2;25.8
78463;SHT31;67756;51.982;5.648;2023-02-26T12:43:58;15.7;26.7
78463;SHT31;67756;51.982;5.648;2023-02-26T12:46:37;16.0;25.4
78463;SHT31;67756;51.982;5.648;2023-02-26T12:49:32;16.3;26.5
78463;SHT31;67756;51.982;5.648;2023-02-26T12:52:26;16.6;24.9
78463;SHT31;67756;51.982;5.648;2023-02-26T12:55:12;16.9;24.5
78463;SHT31;67756;51.982;5.648;2023-02-26T12:58:11;17.1;24.2
78463;SHT31;67756;51.982;5.648;2023-02-26T13:01:10;17.4;23.8
78463;SHT31;67756;51.982;5.648;2023-02-26T13:04:10;17.5;23.3
78463;SHT31;67756;51.982;5.648;2023-02-26T13:07:13;17.7;22.8
78463;SHT31;67756;51.982;5.648;2023-02-26T13:09:54;17.8;22.2
78463;SHT31;67756;51.982;5.648;2023-02-26T13:12:34;18.0;23.0
78463;SHT31;67756;51.982;5.648;2023-02-26T13:15:19;18.1;22.2
78463;SHT31;67756;51.982;5.648;2023-02-26T13:18:00;18.3;21.8
78463;SHT31;67756;51.982;5.648;2023-02-26T13:20:34;18.4;21.5
78463;SHT31;67756;51.982;5.648;2023-02-26T13:23:13;18.5;22.5
78463;SHT31;67756;51.982;5.648;2023-02-26T13:25:48;18.7;22.3
78463;SHT31;67756;51.982;5.648;2023-02-26T13:28:31;18.9;21.4
78463;SHT31;67756;51.982;5.648;2023-02-26T13:31:00;19.1;22.2
78463;SHT31;67756;51.982;5.648;2023-02-26T13:33:33;19.2;22.1
78463;SHT31;67756;51.982;5.648;2023-02-26T13:36:06;19.4;21.3
78463;SHT31;67756;51.982;5.648;2023-02-26T13:38:44;19.6;20.8
78463;SHT31;67756;51.982;5.648;2023-02-26T13:41:24;19.7;21.0
78463;SHT31;67756;51.982;5.648;2023-02-26T13:44:11;19.9;20.9
78463;SHT31;67756;51.982;5.648;2023-02-26T13:46:53;20.0;20.6
78463;SHT31;67756;51.982;5.648;2023-02-26T13:49:33;20.1;19.9
78463;SHT31;67756;51.982;5.648;2023-02-26T13:52:23;20.1;21.2
78463;SHT31;67756;51.982;5.648;2023-02-26T13:54:54;20.2;20.3
78463;SHT31;67756;51.982;5.648;2023-02-26T13:57:42;20.3;20.1
78463;SHT31;67756;51.982;5.648;2023-02-26T14:00:25;20.4;20.6
78463;SHT31;67756;51.982;5.648;2023-02-26T14:02:57;20.5;19.8
78463;SHT31;67756;51.982;5.648;2023-02-26T14:08:45;20.3;20.5
78463;SHT31;67756;51.982;5.648;2023-02-26T14:13:37;20.1;20.1
78463;SHT31;67756;51.982;5.648;2023-02-26T14:16:21;19.6;21.4
78463;SHT31;67756;51.982;5.648;2023-02-26T14:18:52;19.3;20.3
78463;SHT31;67756;51.982;5.648;2023-02-26T14:21:37;19.0;21.5
78463;SHT31;67756;51.982;5.648;2023-02-26T14:24:18;18.7;22.0
78463;SHT31;67756;51.982;5.648;2023-02-26T14:26:50;18.5;22.6
78463;SHT31;67756;51.982;5.648;2023-02-26T14:29:37;18.5;23.1
78463;SHT31;67756;51.982;5.648;2023-02-26T14:32:21;18.4;23.2
78463;SHT31;67756;51.982;5.648;2023-02-26T14:34:52;18.3;22.5
78463;SHT31;67756;51.982;5.648;2023-02-26T14:37:25;18.1;22.4
78463;SHT31;67756;51.982;5.648;2023-02-26T14:40:00;17.9;22.7
78463;SHT31;67756;51.982;5.648;2023-02-26T14:42:40;17.7;23.5
78463;SHT31;67756;51.982;5.648;2023-02-26T14:45:21;17.5;23.1
78463;SHT31;67756;51.982;5.648;2023-02-26T14:47:54;17.2;23.1
78463;SHT31;67756;51.982;5.648;2023-02-26T14:50:34;17.1;24.1
78463;SHT31;67756;51.982;5.648;2023-02-26T14:53:31;16.8;23.6
78463;SHT31;67756;51.982;5.648;2023-02-26T14:56:11;16.6;23.8
78463;SHT31;67756;51.982;5.648;2023-02-26T14:58:57;16.5;23.9
78463;SHT31;67756;51.982;5.648;2023-02-26T15:01:47;16.4;24.3
78463;SHT31;67756;51.982;5.648;2023-02-26T15:04:56;16.3;25.3
78463;SHT31;67756;51.982;5.648;2023-02-26T15:07:42;16.1;24.5
78463;SHT31;67756;51.982;5.648;2023-02-26T15:10:28;15.9;24.7
78463;SHT31;67756;51.982;5.648;2023-02-26T15:13:16;15.7;25.1
78463;SHT31;67756;51.982;5.648;2023-02-26T15:15:53;15.4;25.3
78463;SHT31;67756;51.982;5.648;2023-02-26T15:18:46;15.1;25.9
78463;SHT31;67756;51.982;5.648;2023-02-26T15:21:29;14.8;25.9
78463;SHT31;67756;51.982;5.648;2023-02-26T15:24:03;14.6;25.5
78463;SHT31;67756;51.982;5.648;2023-02-26T15:26:39;14.4;26.4
78463;SHT31;67756;51.982;5.648;2023-02-26T15:29:15;14.2;26.3
78463;SHT31;67756;51.982;5.648;2023-02-26T15:31:53;14.1;27.1
78463;SHT31;67756;51.982;5.648;2023-02-26T15:34:24;13.9;27.7
78463;SHT31;67756;51.982;5.648;2023-02-26T15:36:53;13.8;27.4
78463;SHT31;67756;51.982;5.648;2023-02-26T15:39:27;13.7;27.6
78463;SHT31;67756;51.982;5.648;2023-02-26T15:41:57;13.6;27.4
78463;SHT31;67756;51.982;5.648;2023-02-26T15:44:30;13.4;27.8
78463;SHT31;67756;51.982;5.648;2023-02-26T15:47:02;13.3;28.2
78463;SHT31;67756;51.982;5.648;2023-02-26T15:49:36;13.2;28.7
78463;SHT31;67756;51.982;5.648;2023-02-26T15:52:12;13.1;28.9
78463;SHT31;67756;51.982;5.648;2023-02-26T15:54:46;13.0;29.5
78463;SHT31;67756;51.982;5.648;2023-02-26T15:57:19;12.9;29.3
78463;SHT31;67756;51.982;5.648;2023-02-26T15:59:52;12.8;29.7
78463;SHT31;67756;51.982;5.648;2023-02-26T16:02:26;12.8;30.4
78463;SHT31;67756;51.982;5.648;2023-02-26T16:04:58;12.7;29.1
78463;SHT31;67756;51.982;5.648;2023-02-26T16:07:29;12.6;29.5
78463;SHT31;67756;51.982;5.648;2023-02-26T16:10:07;12.5;29.1
78463;SHT31;67756;51.982;5.648;2023-02-26T16:12:43;12.5;29.5
78463;SHT31;67756;51.982;5.648;2023-02-26T16:15:25;12.4;29.4
78463;SHT31;67756;51.982;5.648;2023-02-26T16:17:58;12.3;29.9
78463;SHT31;67756;51.982;5.648;2023-02-26T16:20:36;12.2;32.3
78463;SHT31;67756;51.982;5.648;2023-02-26T16:23:12;12.2;30.9
78463;SHT31;67756;51.982;5.648;2023-02-26T16:25:47;12.1;31.4
78463;SHT31;67756;51.982;5.648;2023-02-26T16:28:21;12.0;31.7
78463;SHT31;67756;51.982;5.648;2023-02-26T16:30:54;12.0;31.0
78463;SHT31;67756;51.982;5.648;2023-02-26T16:33:26;11.9;31.0
78463;SHT31;67756;51.982;5.648;2023-02-26T16:36:05;11.9;32.0
78463;SHT31;67756;51.982;5.648;2023-02-26T16:38:46;11.8;31.6
78463;SHT31;67756;51.982;5.648;2023-02-26T16:41:24;11.8;31.1
78463;SHT31;67756;51.982;5.648;2023-02-26T16:43:56;11.7;31.5
78463;SHT31;67756;51.982;5.648;2023-02-26T16:46:33;11.6;31.9
78463;SHT31;67756;51.982;5.648;2023-02-26T16:49:11;11.5;32.2
78463;SHT31;67756;51.982;5.648;2023-02-26T16:51:44;11.5;33.0
78463;SHT31;67756;51.982;5.648;2023-02-26T16:54:19;11.4;32.8
78463;SHT31;67756;51.982;5.648;2023-02-26T16:56:53;11.3;32.2
78463;SHT31;67756;51.982;5.648;2023-02-26T16:59:25;11.3;32.7
78463;SHT31;67756;51.982;5.648;2023-02-26T17:01:59;11.2;33.2
78463;SHT31;67756;51.982;5.648;2023-02-26T17:04:32;11.1;33.5
78463;SHT31;67756;51.982;5.648;2023-02-26T17:07:08;11.1;34.0
78463;SHT31;67756;51.982;5.648;2023-02-26T17:09:40;11.0;34.1
78463;SHT31;67756;51.982;5.648;2023-02-26T17:12:16;11.0;34.1
78463;SHT31;67756;51.982;5.648;2023-02-26T17:14:51;10.9;34.0
78463;SHT31;67756;51.982;5.648;2023-02-26T17:17:23;10.9;34.4
78463;SHT31;67756;51.982;5.648;2023-02-26T17:19:53;10.8;34.8
78463;SHT31;67756;51.982;5.648;2023-02-26T17:22:26;10.8;35.1